Time;durP1;ratioP1;P1;durP2;ratioP2;P2;SDS_P1;SDS_P2;PMS_P1;PMS_P2;Temp;Humidity;BMP_temperature;BMP_pressure;BME280_temperature;BME280_humidity;BME280_pressure;Samples;Min_cycle;Max_cycle;Signal;HPM_P1;HPM_P2
2023/03/18 00:00:14;;;;;;;5.65;2.50;;;;;;;;;;5008949;28;20075;-78
2023/03/18 00:02:40;;;;;;;4.10;2.20;;;;;;;;;;5013222;28;20520;-78
2023/03/18 00:05:08;;;;;;;4.07;2.40;;;;;;;;;;5017948;28;20030;-77
2023/03/18 00:07:36;;;;;;;5.78;2.45;;;;;;;;;;5014414;28;20030;-77
2023/03/18 00:10:02;;;;;;;3.95;2.33;;;;;;;;;;5015049;28;20544;-78
2023/03/18 00:12:28;;;;;;;4.40;2.50;;;;;;;;;;5012979;28;20041;-78
2023/03/18 00:14:55;;;;;;;6.45;2.20;;;;;;;;;;5015928;28;20064;-76
2023/03/18 00:17:21;;;;;;;7.45;2.50;;;;;;;;;;5001945;28;20033;-77
2023/03/18 00:19:49;;;;;;;3.35;2.58;;;;;;;;;;5017811;28;20061;-77
2023/03/18 00:22:16;;;;;;;5.38;2.20;;;;;;;;;;5010932;28;20091;-78
2023/03/18 00:24:42;;;;;;;5.03;2.20;;;;;;;;;;5019158;28;20467;-78
2023/03/18 00:27:08;;;;;;;9.63;2.30;;;;;;;;;;5018434;28;20129;-76
2023/03/18 00:29:38;;;;;;;5.85;2.28;;;;;;;;;;5014438;28;20034;-78
2023/03/18 00:32:07;;;;;;;5.18;1.92;;;;;;;;;;5020027;28;20033;-76
2023/03/18 00:34:39;;;;;;;3.92;2.00;;;;;;;;;;5018906;28;20026;-77
2023/03/18 00:37:07;;;;;;;6.38;2.28;;;;;;;;;;5021942;28;20096;-78
2023/03/18 00:39:34;;;;;;;5.60;2.50;;;;;;;;;;5017187;28;20018;-78
2023/03/18 00:42:09;;;;;;;3.95;1.88;;;;;;;;;;5020051;28;20045;-77
2023/03/18 00:44:35;;;;;;;6.20;2.70;;;;;;;;;;5019400;28;20083;-78
2023/03/18 00:47:03;;;;;;;3.85;2.42;;;;;;;;;;5014714;28;20654;-77
2023/03/18 00:49:29;;;;;;;4.68;2.42;;;;;;;;;;5009282;28;20525;-76
2023/03/18 00:51:55;;;;;;;4.13;2.20;;;;;;;;;;5018389;28;20033;-78
2023/03/18 00:54:24;;;;;;;6.05;2.65;;;;;;;;;;5014341;28;20425;-78
2023/03/18 00:56:56;;;;;;;4.85;2.40;;;;;;;;;;5017192;28;20036;-77
2023/03/18 00:59:23;;;;;;;10.18;2.70;;;;;;;;;;5015304;28;20033;-78
2023/03/18 01:01:49;;;;;;;5.75;2.25;;;;;;;;;;5017537;28;20018;-78
2023/03/18 01:04:16;;;;;;;4.00;2.60;;;;;;;;;;5019586;28;20120;-77
2023/03/18 01:06:45;;;;;;;3.08;2.00;;;;;;;;;;5014598;28;20478;-77
2023/03/18 01:09:11;;;;;;;11.15;2.50;;;;;;;;;;5016724;28;20152;-77
2023/03/18 01:11:40;;;;;;;6.35;2.03;;;;;;;;;;5016016;28;20025;-77
2023/03/18 01:14:06;;;;;;;6.43;2.20;;;;;;;;;;5015481;28;20033;-77
2023/03/18 01:16:33;;;;;;;4.25;2.40;;;;;;;;;;5010888;28;20033;-77
2023/03/18 01:19:08;;;;;;;4.40;2.38;;;;;;;;;;4993762;28;20457;-77
2023/03/18 01:21:37;;;;;;;3.97;2.35;;;;;;;;;;5013746;28;20026;-77
2023/03/18 01:24:04;;;;;;;4.57;2.35;;;;;;;;;;5019522;28;20371;-76
2023/03/18 01:26:30;;;;;;;4.60;2.13;;;;;;;;;;5014896;28;20029;-78
2023/03/18 01:28:57;;;;;;;4.07;2.25;;;;;;;;;;5015537;28;20044;-75
2023/03/18 01:31:24;;;;;;;6.03;2.45;;;;;;;;;;5013783;28;20028;-76
2023/03/18 01:33:51;;;;;;;6.75;2.58;;;;;;;;;;5017173;28;20048;-77
2023/03/18 01:36:17;;;;;;;4.53;2.10;;;;;;;;;;5015843;28;20132;-77
2023/03/18 01:38:43;;;;;;;7.18;2.50;;;;;;;;;;5018899;28;20696;-77
2023/03/18 01:41:10;;;;;;;4.88;2.55;;;;;;;;;;5016320;28;20132;-76
2023/03/18 01:43:39;;;;;;;7.32;2.42;;;;;;;;;;5017771;28;20025;-74
2023/03/18 01:46:24;;;;;;;5.15;2.53;;;;;;;;;;5019561;28;20828;-76
2023/03/18 01:48:51;;;;;;;4.10;2.75;;;;;;;;;;5012258;28;20030;-76
2023/03/18 01:51:18;;;;;;;4.78;2.13;;;;;;;;;;5017582;28;20018;-76
2023/03/18 01:53:46;;;;;;;7.97;2.10;;;;;;;;;;5019164;28;20116;-77
2023/03/18 01:56:13;;;;;;;5.20;2.47;;;;;;;;;;5016851;28;20037;-78
2023/03/18 01:58:41;;;;;;;4.72;2.20;;;;;;;;;;5011910;28;20511;-78
2023/03/18 02:01:19;;;;;;;5.60;2.15;;;;;;;;;;5013154;28;20043;-78
2023/03/18 02:03:47;;;;;;;4.00;2.15;;;;;;;;;;5019391;28;20055;-76
2023/03/18 02:06:13;;;;;;;5.32;1.88;;;;;;;;;;5017041;28;20480;-77
2023/03/18 02:08:39;;;;;;;2.78;1.95;;;;;;;;;;5012623;28;20028;-77
2023/03/18 02:11:07;;;;;;;3.75;2.25;;;;;;;;;;5014894;28;20362;-77
2023/03/18 02:13:36;;;;;;;14.93;2.55;;;;;;;;;;5014675;28;20865;-76
2023/03/18 02:16:04;;;;;;;2.90;2.08;;;;;;;;;;5016991;28;20029;-77
2023/03/18 02:18:38;;;;;;;6.75;2.78;;;;;;;;;;5014837;28;20172;-76
2023/03/18 02:21:07;;;;;;;4.35;2.28;;;;;;;;;;5017331;28;20590;-76
2023/03/18 02:23:46;;;;;;;3.33;2.20;;;;;;;;;;5013269;28;20025;-77
2023/03/18 02:26:21;;;;;;;4.80;2.20;;;;;;;;;;5014112;28;20043;-77
2023/03/18 02:28:49;;;;;;;3.97;2.17;;;;;;;;;;5014272;28;20040;-77
2023/03/18 02:31:16;;;;;;;4.93;2.63;;;;;;;;;;5016285;28;20032;-77
2023/03/18 02:33:44;;;;;;;3.40;2.15;;;;;;;;;;5017274;28;20389;-76
2023/03/18 02:36:12;;;;;;;5.30;1.98;;;;;;;;;;5017808;28;20022;-76
2023/03/18 02:38:42;;;;;;;2.72;1.90;;;;;;;;;;5014367;28;20080;-75
2023/03/18 02:41:15;;;;;;;3.80;2.17;;;;;;;;;;5016717;28;20542;-76
2023/03/18 02:43:42;;;;;;;5.28;2.20;;;;;;;;;;5018475;28;20029;-76
2023/03/18 02:46:11;;;;;;;4.35;2.30;;;;;;;;;;5018988;28;20048;-78
2023/03/18 02:48:39;;;;;;;4.72;1.90;;;;;;;;;;5016860;28;20029;-76
2023/03/18 02:51:06;;;;;;;4.32;2.08;;;;;;;;;;4995407;28;20095;-75
2023/03/18 02:53:32;;;;;;;4.80;2.25;;;;;;;;;;5017572;28;20481;-76
2023/03/18 02:55:59;;;;;;;6.82;2.83;;;;;;;;;;5009933;28;20038;-77
2023/03/18 02:58:25;;;;;;;2.85;2.10;;;;;;;;;;4995714;28;20377;-78
2023/03/18 03:00:51;;;;;;;4.15;2.40;;;;;;;;;;5017667;28;20033;-76
2023/03/18 03:03:17;;;;;;;7.72;2.38;;;;;;;;;;5020702;28;20025;-76
2023/03/18 03:05:44;;;;;;;6.07;2.67;;;;;;;;;;5016278;28;20108;-77
2023/03/18 03:08:11;;;;;;;5.82;2.47;;;;;;;;;;5000320;28;20087;-78
2023/03/18 03:10:37;;;;;;;5.85;2.10;;;;;;;;;;5016089;28;20115;-77
2023/03/18 03:13:03;;;;;;;4.93;2.50;;;;;;;;;;5022091;28;20032;-78
2023/03/18 03:15:29;;;;;;;3.88;2.42;;;;;;;;;;5016905;28;20064;-78
2023/03/18 03:17:56;;;;;;;5.00;2.15;;;;;;;;;;5013956;28;20105;-77
2023/03/18 03:20:22;;;;;;;4.22;2.20;;;;;;;;;;5019984;28;20121;-77
2023/03/18 03:22:49;;;;;;;5.68;2.55;;;;;;;;;;5020568;28;20024;-77
2023/03/18 03:25:15;;;;;;;6.80;2.55;;;;;;;;;;5015611;28;20164;-77
2023/03/18 03:27:42;;;;;;;5.13;2.53;;;;;;;;;;5017051;28;20124;-78
2023/03/18 03:30:09;;;;;;;5.93;2.60;;;;;;;;;;5017759;28;20041;-78
2023/03/18 03:32:35;;;;;;;4.47;2.30;;;;;;;;;;5019180;28;20744;-76
2023/03/18 03:35:03;;;;;;;3.40;2.10;;;;;;;;;;5017593;28;20087;-77
2023/03/18 03:37:29;;;;;;;3.80;2.30;;;;;;;;;;5014611;28;20124;-78
2023/03/18 03:39:56;;;;;;;4.43;2.20;;;;;;;;;;5018414;28;20117;-78
2023/03/18 03:42:22;;;;;;;4.47;2.20;;;;;;;;;;5023216;28;20789;-78
2023/03/18 03:44:48;;;;;;;6.47;2.53;;;;;;;;;;5016706;28;20029;-77
2023/03/18 03:47:14;;;;;;;5.25;2.30;;;;;;;;;;5018323;28;20030;-78
2023/03/18 03:49:41;;;;;;;9.43;2.55;;;;;;;;;;5022082;28;20129;-77
2023/03/18 03:52:07;;;;;;;6.55;2.50;;;;;;;;;;5025520;28;20108;-77
2023/03/18 03:54:34;;;;;;;4.35;2.30;;;;;;;;;;5023909;28;20032;-78
2023/03/18 03:57:00;;;;;;;5.95;2.40;;;;;;;;;;5021222;28;20101;-77
2023/03/18 03:59:27;;;;;;;4.13;2.22;;;;;;;;;;5021247;28;20482;-77
2023/03/18 04:01:53;;;;;;;6.47;2.40;;;;;;;;;;5026325;28;20022;-78
2023/03/18 04:04:20;;;;;;;6.07;2.55;;;;;;;;;;5023015;28;20033;-77
2023/03/18 04:06:46;;;;;;;6.47;3.05;;;;;;;;;;5021100;28;20498;-77
2023/03/18 04:09:12;;;;;;;7.03;2.47;;;;;;;;;;5005577;28;20090;-78
2023/03/18 04:11:38;;;;;;;3.90;2.30;;;;;;;;;;5026692;28;20391;-76
2023/03/18 04:14:04;;;;;;;5.10;2.20;;;;;;;;;;5002953;28;20053;-77
2023/03/18 04:16:31;;;;;;;6.78;2.20;;;;;;;;;;5004828;28;20045;-77
2023/03/18 04:18:57;;;;;;;6.25;2.40;;;;;;;;;;5017763;28;20037;-78
2023/03/18 04:21:23;;;;;;;2.75;1.83;;;;;;;;;;5020666;28;20484;-76
2023/03/18 04:23:49;;;;;;;3.20;1.95;;;;;;;;;;5018024;28;20084;-77
2023/03/18 04:26:15;;;;;;;5.22;2.42;;;;;;;;;;5018246;28;20033;-75
2023/03/18 04:28:42;;;;;;;3.97;2.35;;;;;;;;;;5014682;28;20630;-75
2023/03/18 04:31:08;;;;;;;4.85;2.00;;;;;;;;;;5017847;28;20025;-76
2023/03/18 04:33:34;;;;;;;3.65;2.50;;;;;;;;;;5018972;28;20592;-77
2023/03/18 04:36:00;;;;;;;4.57;1.95;;;;;;;;;;5010576;28;20040;-76
2023/03/18 04:38:27;;;;;;;5.05;2.20;;;;;;;;;;5016423;28;20092;-76
2023/03/18 04:40:53;;;;;;;7.05;2.10;;;;;;;;;;5016875;28;20055;-75
2023/03/18 04:43:20;;;;;;;5.38;2.20;;;;;;;;;;5020283;28;20630;-76
2023/03/18 04:45:46;;;;;;;5.13;2.72;;;;;;;;;;5012676;28;20083;-76
2023/03/18 04:48:12;;;;;;;3.85;2.00;;;;;;;;;;4998062;28;20018;-76
2023/03/18 04:50:38;;;;;;;4.47;2.30;;;;;;;;;;5017956;28;20025;-77
2023/03/18 04:53:05;;;;;;;4.47;2.30;;;;;;;;;;5015141;28;20040;-77
2023/03/18 04:55:32;;;;;;;4.75;2.20;;;;;;;;;;5011274;28;20089;-76
2023/03/18 04:57:59;;;;;;;4.38;2.28;;;;;;;;;;5013854;28;20034;-76
2023/03/18 05:00:25;;;;;;;6.85;2.35;;;;;;;;;;5014955;28;20116;-76
2023/03/18 05:02:51;;;;;;;3.45;2.10;;;;;;;;;;5010036;28;20098;-77
2023/03/18 05:05:18;;;;;;;4.85;2.13;;;;;;;;;;4995913;28;20036;-76
2023/03/18 05:07:44;;;;;;;8.75;2.55;;;;;;;;;;5013669;28;20025;-78
2023/03/18 05:10:11;;;;;;;6.35;2.20;;;;;;;;;;4998931;28;20109;-74
2023/03/18 05:12:37;;;;;;;5.07;2.53;;;;;;;;;;5016528;28;20029;-75
2023/03/18 05:15:04;;;;;;;3.92;2.30;;;;;;;;;;5010054;28;20086;-76
2023/03/18 05:17:30;;;;;;;4.80;2.35;;;;;;;;;;5018000;28;20021;-76
2023/03/18 05:19:56;;;;;;;5.65;2.25;;;;;;;;;;5016740;28;20029;-77
2023/03/18 05:22:23;;;;;;;3.92;2.35;;;;;;;;;;5014166;28;20018;-75
2023/03/18 05:24:49;;;;;;;3.53;1.92;;;;;;;;;;5013421;28;20045;-74
2023/03/18 05:27:17;;;;;;;9.52;2.67;;;;;;;;;;5014129;28;20034;-74
2023/03/18 05:29:43;;;;;;;7.55;2.28;;;;;;;;;;5017366;28;20026;-76
2023/03/18 05:32:10;;;;;;;4.38;2.30;;;;;;;;;;5014741;28;20116;-76
2023/03/18 05:34:38;;;;;;;7.07;2.15;;;;;;;;;;5013762;28;20747;-75
2023/03/18 05:37:05;;;;;;;3.88;2.05;;;;;;;;;;5010618;28;20029;-76
2023/03/18 05:39:32;;;;;;;4.95;2.38;;;;;;;;;;4985286;28;20022;-75
2023/03/18 05:41:58;;;;;;;3.95;2.30;;;;;;;;;;5013228;28;20049;-77
2023/03/18 05:44:24;;;;;;;6.63;2.22;;;;;;;;;;5014071;28;20509;-76
2023/03/18 05:46:51;;;;;;;3.55;2.10;;;;;;;;;;5016141;28;20034;-75
2023/03/18 05:49:22;;;;;;;5.00;2.38;;;;;;;;;;5015995;28;20021;-75
2023/03/18 05:51:49;;;;;;;4.70;2.40;;;;;;;;;;5018427;28;20021;-77
2023/03/18 05:54:16;;;;;;;9.80;2.35;;;;;;;;;;5012308;28;20048;-76
2023/03/18 05:56:44;;;;;;;5.03;2.40;;;;;;;;;;5013988;28;20049;-76
2023/03/18 05:59:11;;;;;;;4.82;2.25;;;;;;;;;;5014362;28;20538;-76
2023/03/18 06:01:38;;;;;;;3.72;1.98;;;;;;;;;;5015861;28;20496;-76
2023/03/18 06:04:07;;;;;;;3.72;2.47;;;;;;;;;;5012641;28;20649;-76
2023/03/18 06:06:36;;;;;;;5.53;2.40;;;;;;;;;;5015562;28;20121;-76
2023/03/18 06:09:02;;;;;;;9.07;2.90;;;;;;;;;;5013365;28;20559;-78
2023/03/18 06:11:29;;;;;;;5.47;2.60;;;;;;;;;;5007647;28;20064;-78
2023/03/18 06:13:55;;;;;;;7.10;2.22;;;;;;;;;;5012898;28;20025;-76
2023/03/18 06:16:22;;;;;;;6.88;2.72;;;;;;;;;;5011392;28;20021;-77
2023/03/18 06:18:48;;;;;;;5.68;2.65;;;;;;;;;;5015635;28;20041;-76
2023/03/18 06:21:14;;;;;;;5.57;2.80;;;;;;;;;;5012595;28;20031;-77
2023/03/18 06:23:40;;;;;;;7.07;2.97;;;;;;;;;;5006510;28;20030;-76
2023/03/18 06:26:07;;;;;;;6.97;3.15;;;;;;;;;;5013937;28;20041;-76
2023/03/18 06:28:34;;;;;;;6.78;2.90;;;;;;;;;;5011939;28;20033;-76
2023/03/18 06:31:01;;;;;;;5.57;2.80;;;;;;;;;;5010751;28;20041;-74
2023/03/18 06:33:28;;;;;;;5.10;3.13;;;;;;;;;;5011929;28;20568;-76
2023/03/18 06:35:55;;;;;;;6.25;2.95;;;;;;;;;;5014701;28;20086;-76
2023/03/18 06:38:21;;;;;;;8.10;2.95;;;;;;;;;;5014482;28;20504;-75
2023/03/18 06:40:48;;;;;;;6.45;2.95;;;;;;;;;;5016165;28;20041;-77
2023/03/18 06:43:14;;;;;;;7.95;2.70;;;;;;;;;;5010658;28;20040;-78
2023/03/18 06:45:40;;;;;;;4.65;2.60;;;;;;;;;;5013244;28;20037;-79
2023/03/18 06:48:09;;;;;;;4.60;2.70;;;;;;;;;;4980607;28;20032;-79
2023/03/18 06:50:38;;;;;;;4.55;2.58;;;;;;;;;;5015449;28;20018;-77
2023/03/18 06:53:04;;;;;;;5.65;2.78;;;;;;;;;;5010860;28;20033;-78
2023/03/18 06:55:31;;;;;;;6.72;2.97;;;;;;;;;;5011192;28;20703;-78
2023/03/18 06:57:57;;;;;;;6.50;2.70;;;;;;;;;;5013846;28;20079;-78
2023/03/18 07:00:24;;;;;;;10.40;3.47;;;;;;;;;;5014631;28;20029;-77
2023/03/18 07:02:51;;;;;;;12.02;4.07;;;;;;;;;;5012570;28;20017;-78
2023/03/18 07:05:17;;;;;;;6.35;3.72;;;;;;;;;;5004843;28;20033;-76
2023/03/18 07:07:45;;;;;;;7.25;3.60;;;;;;;;;;5015608;28;20489;-78
2023/03/18 07:10:17;;;;;;;10.73;4.68;;;;;;;;;;5016211;28;20755;-78
2023/03/18 07:12:43;;;;;;;14.73;6.22;;;;;;;;;;5009797;28;20026;-77
2023/03/18 07:15:10;;;;;;;13.15;6.72;;;;;;;;;;5007728;28;20036;-78
2023/03/18 07:17:37;;;;;;;16.92;8.10;;;;;;;;;;5014944;28;20580;-78
2023/03/18 07:20:04;;;;;;;10.80;7.57;;;;;;;;;;5010461;28;20104;-75
2023/03/18 07:22:30;;;;;;;12.00;8.73;;;;;;;;;;5009567;28;20029;-77
2023/03/18 07:24:56;;;;;;;11.32;8.20;;;;;;;;;;5012851;28;20136;-76
2023/03/18 07:27:23;;;;;;;11.70;7.00;;;;;;;;;;4996880;28;20025;-78
2023/03/18 07:29:49;;;;;;;9.15;6.28;;;;;;;;;;5018578;28;20370;-78
2023/03/18 07:32:17;;;;;;;11.48;6.43;;;;;;;;;;4997693;28;20018;-76
2023/03/18 07:34:46;;;;;;;8.23;4.60;;;;;;;;;;5015710;28;20079;-78
2023/03/18 07:37:13;;;;;;;10.55;4.43;;;;;;;;;;5015256;28;20025;-77
2023/03/18 07:39:39;;;;;;;5.53;3.67;;;;;;;;;;5016129;28;20551;-76
2023/03/18 07:42:06;;;;;;;5.55;3.40;;;;;;;;;;5017171;28;20029;-78
2023/03/18 07:44:32;;;;;;;4.50;3.00;;;;;;;;;;5014459;28;20018;-77
2023/03/18 07:46:58;;;;;;;5.90;4.03;;;;;;;;;;5018264;28;20540;-78
2023/03/18 07:49:24;;;;;;;7.13;4.22;;;;;;;;;;5017054;28;20025;-77
2023/03/18 07:51:51;;;;;;;9.57;5.47;;;;;;;;;;5014013;28;20079;-77
2023/03/18 07:54:17;;;;;;;5.82;4.00;;;;;;;;;;5013533;28;20620;-78
2023/03/18 07:56:43;;;;;;;7.63;3.85;;;;;;;;;;5017371;28;20029;-78
2023/03/18 07:59:09;;;;;;;5.38;3.72;;;;;;;;;;5019317;28;20029;-76
2023/03/18 08:01:36;;;;;;;5.15;3.00;;;;;;;;;;5002001;28;20176;-78
2023/03/18 08:04:03;;;;;;;6.80;3.10;;;;;;;;;;4998330;28;20034;-77
2023/03/18 08:06:29;;;;;;;9.77;4.53;;;;;;;;;;5016112;28;20049;-79
2023/03/18 08:08:55;;;;;;;8.40;4.72;;;;;;;;;;4997764;28;20022;-77
2023/03/18 08:11:21;;;;;;;11.68;6.70;;;;;;;;;;4997685;28;20037;-77
2023/03/18 08:13:47;;;;;;;14.52;7.90;;;;;;;;;;5014556;28;20073;-78
2023/03/18 08:16:14;;;;;;;17.67;8.23;;;;;;;;;;5019265;28;20032;-77
2023/03/18 08:18:40;;;;;;;12.10;7.75;;;;;;;;;;5015851;28;20043;-78
2023/03/18 08:21:08;;;;;;;10.73;5.95;;;;;;;;;;5011357;28;20021;-76
2023/03/18 08:23:34;;;;;;;11.85;5.43;;;;;;;;;;5015866;28;20460;-79
2023/03/18 08:26:01;;;;;;;12.27;6.35;;;;;;;;;;5018058;28;20044;-77
2023/03/18 08:28:28;;;;;;;9.18;5.28;;;;;;;;;;5018147;28;20095;-77
2023/03/18 08:30:55;;;;;;;7.95;5.25;;;;;;;;;;5016393;28;20120;-78
2023/03/18 08:33:22;;;;;;;7.90;5.05;;;;;;;;;;5016328;28;20017;-78
2023/03/18 08:35:48;;;;;;;8.60;5.03;;;;;;;;;;5017699;28;20581;-77
2023/03/18 08:38:15;;;;;;;6.15;3.28;;;;;;;;;;5020344;28;20056;-78
2023/03/18 08:40:41;;;;;;;11.02;4.45;;;;;;;;;;4981806;28;20049;-77
2023/03/18 08:43:08;;;;;;;8.77;4.35;;;;;;;;;;5013607;28;20072;-77
2023/03/18 08:45:37;;;;;;;8.40;4.53;;;;;;;;;;5015367;28;20118;-77
2023/03/18 08:48:04;;;;;;;6.47;3.88;;;;;;;;;;5016660;28;20017;-79
2023/03/18 08:50:30;;;;;;;8.65;4.80;;;;;;;;;;5015195;28;20776;-77
2023/03/18 08:52:57;;;;;;;8.00;3.80;;;;;;;;;;5015435;28;20045;-78
2023/03/18 08:55:34;;;;;;;7.30;4.65;;;;;;;;;;5011290;28;20505;-77
2023/03/18 08:58:00;;;;;;;7.18;4.05;;;;;;;;;;5017129;28;20034;-76
2023/03/18 09:00:28;;;;;;;7.47;3.75;;;;;;;;;;5010360;28;20633;-77
2023/03/18 09:02:54;;;;;;;8.98;4.07;;;;;;;;;;4997692;28;20030;-79
2023/03/18 09:05:21;;;;;;;5.55;3.20;;;;;;;;;;5011869;28;20120;-79
2023/03/18 09:07:47;;;;;;;8.52;3.40;;;;;;;;;;5014044;28;20069;-79
2023/03/18 09:10:16;;;;;;;5.80;3.72;;;;;;;;;;4989914;28;20120;-76
2023/03/18 09:12:42;;;;;;;4.90;3.10;;;;;;;;;;4999104;28;20026;-77
2023/03/18 09:15:09;;;;;;;8.73;3.60;;;;;;;;;;5015942;28;20561;-78
2023/03/18 09:17:39;;;;;;;5.53;2.95;;;;;;;;;;5016771;28;20434;-77
2023/03/18 09:20:07;;;;;;;6.15;3.35;;;;;;;;;;4996953;28;20091;-76
2023/03/18 09:22:33;;;;;;;4.55;2.55;;;;;;;;;;4991272;28;20704;-78
2023/03/18 09:24:59;;;;;;;5.07;2.42;;;;;;;;;;5012910;28;20037;-78
2023/03/18 09:27:26;;;;;;;7.32;3.63;;;;;;;;;;5013131;28;20026;-78
2023/03/18 09:29:52;;;;;;;7.13;3.95;;;;;;;;;;5009469;28;20029;-77
2023/03/18 09:32:19;;;;;;;8.70;4.63;;;;;;;;;;4999810;28;20175;-77
2023/03/18 09:34:45;;;;;;;13.27;4.47;;;;;;;;;;5015836;28;20050;-77
2023/03/18 09:37:13;;;;;;;4.43;3.45;;;;;;;;;;4993484;28;20034;-77
2023/03/18 09:39:40;;;;;;;4.93;2.75;;;;;;;;;;4991517;28;20148;-78
2023/03/18 09:42:30;;;;;;;4.88;2.90;;;;;;;;;;4995792;28;20124;-77
2023/03/18 09:45:01;;;;;;;6.25;3.60;;;;;;;;;;5015843;28;20518;-76
2023/03/18 09:47:46;;;;;;;5.75;3.38;;;;;;;;;;5009519;28;20045;-76
2023/03/18 09:50:30;;;;;;;5.57;2.85;;;;;;;;;;4997507;28;20513;-77
2023/03/18 09:53:08;;;;;;;7.03;2.95;;;;;;;;;;5015152;28;20104;-76
2023/03/18 09:55:45;;;;;;;5.05;2.70;;;;;;;;;;5014343;28;20120;-77
2023/03/18 09:58:21;;;;;;;6.80;3.20;;;;;;;;;;5011966;28;20092;-78
2023/03/18 10:00:47;;;;;;;7.15;2.88;;;;;;;;;;5008289;28;20405;-77
2023/03/18 10:03:20;;;;;;;9.57;3.00;;;;;;;;;;4994719;28;20577;-78
2023/03/18 10:05:47;;;;;;;4.88;3.15;;;;;;;;;;4998225;28;20156;-77
2023/03/18 10:08:18;;;;;;;5.93;3.25;;;;;;;;;;5013613;28;20025;-77
2023/03/18 10:10:45;;;;;;;5.47;2.58;;;;;;;;;;5006907;28;20144;-77
2023/03/18 10:13:21;;;;;;;5.28;2.90;;;;;;;;;;5012863;28;20033;-77
2023/03/18 10:15:52;;;;;;;3.53;2.38;;;;;;;;;;5015377;28;20127;-78
2023/03/18 10:18:29;;;;;;;4.90;2.60;;;;;;;;;;5012341;28;20172;-76
2023/03/18 10:20:55;;;;;;;4.90;3.00;;;;;;;;;;5012071;28;20071;-77
2023/03/18 10:23:21;;;;;;;7.53;2.90;;;;;;;;;;4991652;28;20026;-77
2023/03/18 10:25:58;;;;;;;7.68;3.47;;;;;;;;;;5014718;28;20037;-80
2023/03/18 10:28:34;;;;;;;7.57;3.65;;;;;;;;;;5015282;28;20112;-78
2023/03/18 10:31:03;;;;;;;5.85;3.50;;;;;;;;;;5011345;28;20429;-76
2023/03/18 10:33:38;;;;;;;6.45;3.75;;;;;;;;;;4993890;28;20576;-77
2023/03/18 10:36:23;;;;;;;7.78;3.47;;;;;;;;;;5011269;28;20053;-76
2023/03/18 10:38:50;;;;;;;8.40;3.28;;;;;;;;;;5008964;28;20075;-76
2023/03/18 10:41:29;;;;;;;6.55;3.13;;;;;;;;;;5009198;28;20183;-77
2023/03/18 10:43:56;;;;;;;7.65;2.85;;;;;;;;;;5013454;28;20153;-77
2023/03/18 10:46:24;;;;;;;5.75;3.20;;;;;;;;;;5014714;28;20121;-77
2023/03/18 10:48:55;;;;;;;5.75;2.85;;;;;;;;;;5011694;28;20049;-76
2023/03/18 10:51:30;;;;;;;5.50;3.20;;;;;;;;;;5010814;28;20047;-77
2023/03/18 10:54:15;;;;;;;10.25;4.75;;;;;;;;;;5014905;28;20035;-76
2023/03/18 10:56:42;;;;;;;7.90;3.65;;;;;;;;;;5008792;28;20028;-78
2023/03/18 10:59:14;;;;;;;5.97;3.80;;;;;;;;;;5011893;28;20559;-77
2023/03/18 11:01:40;;;;;;;;;;;;;;;;;;5013234;28;20046;-77
2023/03/18 11:04:12;;;;;;;7.95;3.47;;;;;;;;;;5012965;28;20749;-77
2023/03/18 11:06:46;;;;;;;4.82;3.00;;;;;;;;;;5012605;28;20095;-76
2023/03/18 11:09:16;;;;;;;5.88;3.42;;;;;;;;;;5011248;28;20091;-77
2023/03/18 11:11:44;;;;;;;4.45;3.08;;;;;;;;;;5013075;28;20025;-78
2023/03/18 11:14:19;;;;;;;6.38;3.30;;;;;;;;;;5012679;28;20469;-76
2023/03/18 11:16:50;;;;;;;7.43;3.38;;;;;;;;;;5011112;28;20061;-78
2023/03/18 11:19:24;;;;;;;5.85;3.70;;;;;;;;;;5013132;28;20018;-77
2023/03/18 11:22:00;;;;;;;6.63;3.22;;;;;;;;;;5013181;28;20100;-76
2023/03/18 11:24:48;;;;;;;4.22;3.10;;;;;;;;;;5017319;28;20119;-77
2023/03/18 11:27:14;;;;;;;6.50;3.55;;;;;;;;;;5016282;28;20037;-77
2023/03/18 11:29:42;;;;;;;5.78;3.10;;;;;;;;;;5015697;28;20063;-77
2023/03/18 11:32:23;;;;;;;4.95;3.15;;;;;;;;;;5013729;28;20045;-78
2023/03/18 11:35:00;;;;;;;6.32;3.20;;;;;;;;;;5012398;28;20090;-78
2023/03/18 11:37:31;;;;;;;7.07;3.50;;;;;;;;;;5011655;28;20163;-76
2023/03/18 11:40:17;;;;;;;3.88;3.03;;;;;;;;;;5013843;28;20057;-77
2023/03/18 11:42:44;;;;;;;6.63;3.08;;;;;;;;;;5017022;28;20060;-78
2023/03/18 11:45:23;;;;;;;6.15;3.28;;;;;;;;;;4997123;28;20128;-77
2023/03/18 11:47:50;;;;;;;12.68;4.35;;;;;;;;;;5011920;28;20022;-77
2023/03/18 11:50:19;;;;;;;10.85;3.50;;;;;;;;;;5016214;28;20022;-77
2023/03/18 11:52:45;;;;;;;5.88;3.47;;;;;;;;;;5016797;28;20021;-76
2023/03/18 11:55:17;;;;;;;7.65;3.40;;;;;;;;;;5012693;28;20018;-78
2023/03/18 11:57:49;;;;;;;7.18;3.78;;;;;;;;;;5014523;28;20101;-78
2023/03/18 12:00:19;;;;;;;7.22;3.47;;;;;;;;;;5013995;28;20021;-78
2023/03/18 12:02:58;;;;;;;8.38;3.75;;;;;;;;;;4999911;28;20032;-76
2023/03/18 12:05:47;;;;;;;5.57;3.85;;;;;;;;;;5011815;28;20600;-79
2023/03/18 12:08:32;;;;;;;9.75;4.03;;;;;;;;;;4970943;28;20236;-79
2023/03/18 12:11:19;;;;;;;5.15;3.78;;;;;;;;;;5015742;28;20112;-79
2023/03/18 12:13:45;;;;;;;6.18;3.80;;;;;;;;;;5022090;28;20022;-78
2023/03/18 12:16:24;;;;;;;6.70;3.95;;;;;;;;;;5012498;28;20025;-75
2023/03/18 12:19:05;;;;;;;5.53;3.85;;;;;;;;;;5014012;28;20033;-76
2023/03/18 12:21:32;;;;;;;5.43;3.70;;;;;;;;;;5020148;28;20014;-75
2023/03/18 12:24:01;;;;;;;4.85;3.88;;;;;;;;;;5020520;28;20108;-78
2023/03/18 12:26:46;;;;;;;6.13;3.90;;;;;;;;;;4998742;28;20127;-78
2023/03/18 12:29:13;;;;;;;8.02;3.90;;;;;;;;;;5013099;28;20760;-76
2023/03/18 12:31:39;;;;;;;6.28;3.95;;;;;;;;;;5021102;28;20571;-77
2023/03/18 12:34:16;;;;;;;5.55;4.03;;;;;;;;;;5001513;28;20632;-76
2023/03/18 12:37:01;;;;;;;5.30;3.65;;;;;;;;;;5020235;28;20108;-77
2023/03/18 12:39:44;;;;;;;5.60;3.47;;;;;;;;;;5016794;28;20859;-75
2023/03/18 12:42:25;;;;;;;6.68;3.25;;;;;;;;;;5019449;28;20044;-75
2023/03/18 12:44:53;;;;;;;8.77;3.75;;;;;;;;;;5012105;28;20065;-76
2023/03/18 12:47:25;;;;;;;12.88;3.83;;;;;;;;;;5018400;28;20021;-76
2023/03/18 12:49:51;;;;;;;;;;;;;;;;;;5018953;28;20043;-76
2023/03/18 12:52:17;;;;;;;6.50;3.53;;;;;;;;;;5020621;28;19905;-78
2023/03/18 12:54:47;;;;;;;5.72;3.72;;;;;;;;;;5012676;28;20018;-76
2023/03/18 12:57:20;;;;;;;5.35;3.85;;;;;;;;;;5013351;28;20112;-79
2023/03/18 13:00:00;;;;;;;5.72;3.78;;;;;;;;;;5001632;28;20335;-79
2023/03/18 13:02:45;;;;;;;6.55;4.22;;;;;;;;;;5016407;28;20017;-76
2023/03/18 13:05:20;;;;;;;7.93;4.13;;;;;;;;;;5014766;28;20033;-77
2023/03/18 13:07:49;;;;;;;5.38;3.63;;;;;;;;;;4998252;28;20367;-75
2023/03/18 13:10:23;;;;;;;6.63;4.03;;;;;;;;;;5014333;28;20026;-76
2023/03/18 13:12:52;;;;;;;4.68;3.45;;;;;;;;;;5020020;28;20021;-75
2023/03/18 13:15:28;;;;;;;8.73;4.15;;;;;;;;;;5011957;28;20092;-80
2023/03/18 13:17:59;;;;;;;5.63;4.40;;;;;;;;;;5015144;28;20435;-75
2023/03/18 13:20:28;;;;;;;6.13;3.85;;;;;;;;;;5016695;28;20033;-75
2023/03/18 13:22:57;;;;;;;6.45;4.07;;;;;;;;;;5018451;28;20470;-78
2023/03/18 13:25:44;;;;;;;5.28;3.92;;;;;;;;;;5018284;28;20117;-76
2023/03/18 13:28:28;;;;;;;5.55;3.85;;;;;;;;;;5016666;28;20105;-76
2023/03/18 13:31:10;;;;;;;5.63;3.78;;;;;;;;;;5019704;28;20462;-79
2023/03/18 13:33:40;;;;;;;6.00;4.13;;;;;;;;;;5020027;28;20025;-79
2023/03/18 13:36:06;;;;;;;7.03;4.65;;;;;;;;;;5013395;28;20060;-78
2023/03/18 13:38:32;;;;;;;9.45;4.57;;;;;;;;;;5016768;28;20504;-78
2023/03/18 13:40:59;;;;;;;7.05;3.80;;;;;;;;;;5019718;28;20071;-77
2023/03/18 13:43:27;;;;;;;27.05;11.02;;;;;;;;;;5013083;28;20044;-76
2023/03/18 13:45:54;;;;;;;9.80;4.68;;;;;;;;;;5015719;28;20029;-78
2023/03/18 13:48:22;;;;;;;10.02;5.07;;;;;;;;;;5017052;28;20156;-78
2023/03/18 13:50:50;;;;;;;15.45;8.40;;;;;;;;;;5019565;28;20104;-79
2023/03/18 13:53:19;;;;;;;16.20;8.15;;;;;;;;;;5015044;28;20108;-79
2023/03/18 13:55:48;;;;;;;6.60;3.85;;;;;;;;;;5015073;28;20049;-80
2023/03/18 13:58:20;;;;;;;5.32;3.40;;;;;;;;;;5015344;28;20477;-75
2023/03/18 14:00:55;;;;;;;6.38;4.38;;;;;;;;;;5020183;28;20025;-75
2023/03/18 14:03:26;;;;;;;12.38;6.38;;;;;;;;;;5000772;28;20391;-77
2023/03/18 14:06:13;;;;;;;15.95;7.13;;;;;;;;;;5009558;28;20641;-78
2023/03/18 14:08:43;;;;;;;11.10;5.10;;;;;;;;;;5002801;28;20040;-78
2023/03/18 14:11:15;;;;;;;9.95;4.60;;;;;;;;;;5015860;28;20029;-79
2023/03/18 14:13:42;;;;;;;9.07;5.15;;;;;;;;;;5014774;28;20010;-79
2023/03/18 14:16:13;;;;;;;7.15;3.90;;;;;;;;;;4996198;28;20083;-78
2023/03/18 14:18:40;;;;;;;12.57;6.73;;;;;;;;;;5015304;28;20103;-75
2023/03/18 14:21:22;;;;;;;6.57;3.95;;;;;;;;;;5013460;28;20014;-79
2023/03/18 14:24:01;;;;;;;9.98;4.95;;;;;;;;;;4997869;28;20094;-79
2023/03/18 14:26:28;;;;;;;12.18;5.05;;;;;;;;;;5014633;28;20113;-79
2023/03/18 14:28:56;;;;;;;15.80;6.43;;;;;;;;;;5017709;28;20021;-79
2023/03/18 14:31:31;;;;;;;23.58;9.75;;;;;;;;;;5015321;28;20639;-75
2023/03/18 14:33:57;;;;;;;11.57;6.22;;;;;;;;;;5014071;28;20086;-79
2023/03/18 14:36:28;;;;;;;11.80;5.38;;;;;;;;;;5012658;28;20033;-76
2023/03/18 14:39:02;;;;;;;15.02;6.78;;;;;;;;;;5018472;28;20021;-79
2023/03/18 14:41:31;;;;;;;11.43;4.72;;;;;;;;;;5016185;28;20050;-79
2023/03/18 14:44:01;;;;;;;6.65;4.18;;;;;;;;;;5015134;28;20426;-79
2023/03/18 14:46:31;;;;;;;10.30;3.78;;;;;;;;;;5016583;28;20031;-77
2023/03/18 14:48:58;;;;;;;5.97;3.33;;;;;;;;;;5017085;28;20026;-75
2023/03/18 14:51:25;;;;;;;8.48;4.00;;;;;;;;;;5014301;28;20488;-79
2023/03/18 14:54:05;;;;;;;7.82;4.10;;;;;;;;;;5013095;28;20014;-78